Time;durP1;ratioP1;P1;durP2;ratioP2;P2;SDS_P1;SDS_P2;PMS_P1;PMS_P2;Temp;Humidity;BMP_temperature;BMP_pressure;BME280_temperature;BME280_humidity;BME280_pressure;Samples;Min_cycle;Max_cycle;Signal;HPM_P1;HPM_P2
2023/03/18 00:01:23;;;;;;;2.33;1.43;;;11.70;72.90;;;;;;5091681;28;20422;-71
2023/03/18 00:03:49;;;;;;;1.93;1.27;;;11.90;70.70;;;;;;5091829;28;20247;-71
2023/03/18 00:06:17;;;;;;;5.17;1.47;;;12.10;68.50;;;;;;5091876;28;20609;-72
2023/03/18 00:08:46;;;;;;;4.50;1.80;;;12.20;67.90;;;;;;5073177;28;20192;-72
2023/03/18 00:11:13;;;;;;;2.90;1.30;;;12.40;67.00;;;;;;5090241;28;20434;-71
2023/03/18 00:13:40;;;;;;;4.33;1.73;;;12.40;65.40;;;;;;5091659;28;20422;-72
2023/03/18 00:16:07;;;;;;;1.97;1.77;;;12.60;65.80;;;;;;5091470;28;20427;-72
2023/03/18 00:18:34;;;;;;;4.83;1.77;;;12.70;65.20;;;;;;5091454;28;20422;-72
2023/03/18 00:21:00;;;;;;;10.60;1.63;;;12.80;63.30;;;;;;5089758;28;20484;-72
2023/03/18 00:23:27;;;;;;;1.53;1.20;;;12.80;63.40;;;;;;5091237;28;20454;-72
2023/03/18 00:25:56;;;;;;;4.00;1.83;;;12.80;64.40;;;;;;5089989;28;20887;-71
2023/03/18 00:28:22;;;;;;;11.37;1.93;;;12.80;64.10;;;;;;5090838;28;20413;-71
2023/03/18 00:30:48;;;;;;;3.73;1.87;;;12.90;61.80;;;;;;5090856;28;20447;-72
2023/03/18 00:33:15;;;;;;;3.33;1.53;;;12.80;62.90;;;;;;5090645;28;20424;-72
2023/03/18 00:35:41;;;;;;;3.37;1.50;;;12.80;63.20;;;;;;5091026;28;20568;-72
2023/03/18 00:38:08;;;;;;;2.57;1.23;;;12.80;62.50;;;;;;5091155;28;20891;-71
2023/03/18 00:40:52;;;;;;;3.13;1.47;;;12.70;64.30;;;;;;5091119;28;20792;-72
2023/03/18 00:43:21;;;;;;;3.03;1.50;;;12.80;62.90;;;;;;5090965;28;20910;-72
2023/03/18 00:45:49;;;;;;;3.43;1.23;;;12.70;63.00;;;;;;5091113;28;20439;-72
2023/03/18 00:48:15;;;;;;;4.30;1.63;;;12.80;62.80;;;;;;5091048;28;20419;-71
2023/03/18 00:50:43;;;;;;;3.37;1.20;;;12.70;62.60;;;;;;5090713;28;20703;-72
2023/03/18 00:53:10;;;;;;;2.07;1.70;;;12.80;62.10;;;;;;5090578;28;20418;-72
2023/03/18 00:55:35;;;;;;;3.43;1.50;;;12.80;62.80;;;;;;5090842;28;20437;-72
2023/03/18 00:58:01;;;;;;;1.33;0.90;;;12.70;62.60;;;;;;5089202;28;20924;-72
2023/03/18 01:00:27;;;;;;;3.00;1.40;;;12.70;62.20;;;;;;5091123;28;20318;-72
2023/03/18 01:02:53;;;;;;;2.93;1.33;;;12.70;62.20;;;;;;5089206;28;20905;-71
2023/03/18 01:05:19;;;;;;;5.27;1.50;;;12.80;61.30;;;;;;5090828;28;20420;-71
2023/03/18 01:07:46;;;;;;;3.27;1.30;;;12.80;60.20;;;;;;5089275;28;20440;-72
2023/03/18 01:10:13;;;;;;;6.27;1.80;;;12.80;60.50;;;;;;5090584;28;20442;-71
2023/03/18 01:12:40;;;;;;;4.40;1.20;;;12.80;60.10;;;;;;5090596;28;20472;-71
2023/03/18 01:15:09;;;;;;;3.63;1.47;;;12.80;59.50;;;;;;5090531;28;20422;-72
2023/03/18 01:17:35;;;;;;;4.43;1.47;;;12.80;59.90;;;;;;5090534;28;20422;-72
2023/03/18 01:20:02;;;;;;;5.23;1.67;;;13.00;59.80;;;;;;5089142;28;20432;-72
2023/03/18 01:22:28;;;;;;;3.43;1.70;;;12.80;60.60;;;;;;5088767;28;20493;-71
2023/03/18 01:24:54;;;;;;;1.93;1.00;;;12.70;60.70;;;;;;5089001;28;20868;-71
2023/03/18 01:27:20;;;;;;;1.87;1.50;;;12.70;60.90;;;;;;5090218;28;20809;-71
2023/03/18 01:29:46;;;;;;;1.93;0.80;;;12.70;60.00;;;;;;5090113;28;20474;-71
2023/03/18 01:32:12;;;;;;;2.23;1.37;;;12.70;60.00;;;;;;5071720;28;20434;-71
2023/03/18 01:34:37;;;;;;;1.67;1.03;;;12.70;59.80;;;;;;5088547;28;20803;-72
2023/03/18 01:37:04;;;;;;;1.83;1.13;;;12.70;59.50;;;;;;5091159;28;20197;-72
2023/03/18 01:39:30;;;;;;;3.00;1.20;;;12.70;59.70;;;;;;5072538;28;20677;-72
2023/03/18 01:41:55;;;;;;;3.33;1.17;;;12.70;59.60;;;;;;5071453;28;20432;-72
2023/03/18 01:44:22;;;;;;;2.40;1.30;;;12.60;60.10;;;;;;5090448;28;20596;-71
2023/03/18 01:46:51;;;;;;;1.83;1.20;;;12.60;60.40;;;;;;5090714;28;20287;-71
2023/03/18 01:49:25;;;;;;;4.13;1.47;;;12.60;60.40;;;;;;5089941;28;20455;-72
2023/03/18 01:51:58;;;;;;;1.83;0.93;;;12.60;59.40;;;;;;5091626;28;20490;-72
2023/03/18 01:54:26;;;;;;;3.13;1.27;;;12.60;58.40;;;;;;5088697;28;20470;-72
2023/03/18 01:56:53;;;;;;;4.10;1.10;;;12.60;58.00;;;;;;5088734;28;20993;-71
2023/03/18 01:59:22;;;;;;;4.03;1.10;;;12.70;57.50;;;;;;5089443;28;20533;-72
2023/03/18 02:02:00;;;;;;;2.17;1.10;;;12.70;57.50;;;;;;5088596;28;20428;-72
2023/03/18 02:04:30;;;;;;;1.40;1.00;;;12.70;58.30;;;;;;5090068;28;20560;-72
2023/03/18 02:06:57;;;;;;;2.53;1.10;;;12.50;61.40;;;;;;5089925;28;20478;-72
2023/03/18 02:09:23;;;;;;;3.63;0.93;;;12.40;58.80;;;;;;5089312;28;20949;-71
2023/03/18 02:11:50;;;;;;;3.23;1.60;;;12.50;58.40;;;;;;5089600;28;20521;-71
2023/03/18 02:14:19;;;;;;;1.20;1.10;;;12.40;59.00;;;;;;5089234;28;20323;-70
2023/03/18 02:16:56;;;;;;;1.73;1.23;;;12.50;57.70;;;;;;5089413;28;20425;-72
2023/03/18 02:19:32;;;;;;;2.13;0.97;;;12.70;56.90;;;;;;5088948;28;20433;-71
2023/03/18 02:22:09;;;;;;;4.00;1.13;;;12.70;57.50;;;;;;5089697;28;20929;-71
2023/03/18 02:24:51;;;;;;;2.20;0.80;;;12.70;57.10;;;;;;5089198;28;21009;-72
2023/03/18 02:27:19;;;;;;;1.83;0.97;;;12.70;57.30;;;;;;5087113;28;20525;-72
2023/03/18 02:29:47;;;;;;;2.43;1.10;;;12.60;57.90;;;;;;5088741;28;20444;-72
2023/03/18 02:32:14;;;;;;;2.93;1.37;;;12.60;58.00;;;;;;5087677;28;20426;-72
2023/03/18 02:34:41;;;;;;;2.37;1.27;;;12.50;58.50;;;;;;5087545;28;20430;-71
2023/03/18 02:37:07;;;;;;;3.50;1.13;;;12.50;58.60;;;;;;5088314;28;20440;-72
2023/03/18 02:39:34;;;;;;;3.20;1.30;;;12.40;58.70;;;;;;5088603;28;20900;-72
2023/03/18 02:42:00;;;;;;;1.97;0.90;;;12.40;59.00;;;;;;5088582;28;20197;-72
2023/03/18 02:44:25;;;;;;;1.87;1.20;;;12.30;59.40;;;;;;5088630;28;21048;-71
2023/03/18 02:46:56;;;;;;;3.07;1.70;;;12.30;59.80;;;;;;5088644;28;20196;-71
2023/03/18 02:49:23;;;;;;;1.83;0.90;;;12.20;60.50;;;;;;5088571;28;20284;-72
2023/03/18 02:51:50;;;;;;;1.47;1.03;;;12.10;60.30;;;;;;5088659;28;20419;-71
2023/03/18 02:54:25;;;;;;;7.07;1.00;;;12.10;61.10;;;;;;5088552;28;20433;-70
2023/03/18 02:56:52;;;;;;;2.53;1.33;;;12.10;60.40;;;;;;5088542;28;20471;-71
2023/03/18 02:59:18;;;;;;;5.03;1.37;;;12.10;60.00;;;;;;5087224;28;20513;-71
2023/03/18 03:01:47;;;;;;;3.63;1.10;;;12.10;60.70;;;;;;5086805;28;20488;-72
2023/03/18 03:04:14;;;;;;;5.17;1.63;;;12.00;61.40;;;;;;5088318;28;21038;-72
2023/03/18 03:06:41;;;;;;;2.43;1.40;;;12.00;60.40;;;;;;5088561;28;20443;-72
2023/03/18 03:09:09;;;;;;;2.13;1.00;;;11.90;62.20;;;;;;5086857;28;20442;-72
2023/03/18 03:11:35;;;;;;;3.47;1.00;;;11.80;63.40;;;;;;5090164;28;20911;-72
2023/03/18 03:14:01;;;;;;;1.40;1.30;;;11.80;62.70;;;;;;5090890;28;20422;-71
2023/03/18 03:16:27;;;;;;;1.37;0.90;;;11.70;63.40;;;;;;5092108;28;20968;-71
2023/03/18 03:18:52;;;;;;;2.73;1.17;;;11.70;64.40;;;;;;5092082;28;20953;-71
2023/03/18 03:21:18;;;;;;;2.17;1.33;;;11.70;62.80;;;;;;5090701;28;20196;-72
2023/03/18 03:23:46;;;;;;;2.57;1.30;;;11.70;63.40;;;;;;5091960;28;20273;-72
2023/03/18 03:26:13;;;;;;;2.10;1.37;;;11.70;62.70;;;;;;5091917;28;20185;-72
2023/03/18 03:28:39;;;;;;;3.57;1.30;;;11.80;63.10;;;;;;5090631;28;20469;-71
2023/03/18 03:31:05;;;;;;;2.90;1.37;;;11.70;64.10;;;;;;5090285;28;20480;-71
2023/03/18 03:33:32;;;;;;;3.30;1.40;;;11.70;63.70;;;;;;5090655;28;20433;-71
2023/03/18 03:35:58;;;;;;;3.73;1.40;;;11.60;64.30;;;;;;5090533;28;20439;-71
2023/03/18 03:38:24;;;;;;;1.87;1.13;;;11.50;65.80;;;;;;5091741;28;21026;-71
2023/03/18 03:40:50;;;;;;;1.97;1.30;;;11.50;65.30;;;;;;5092179;28;20471;-71
2023/03/18 03:43:16;;;;;;;4.93;1.63;;;11.40;65.60;;;;;;5091724;28;20598;-71
2023/03/18 03:45:43;;;;;;;7.50;1.10;;;11.40;65.20;;;;;;5091594;28;20407;-71
2023/03/18 03:48:10;;;;;;;2.10;1.10;;;11.50;63.90;;;;;;5091729;28;20495;-70
2023/03/18 03:50:36;;;;;;;2.40;1.13;;;11.50;63.50;;;;;;5091795;28;20433;-71
2023/03/18 03:53:03;;;;;;;8.10;1.30;;;11.60;63.20;;;;;;5091766;28;20414;-71
2023/03/18 03:55:29;;;;;;;1.73;1.27;;;11.70;63.20;;;;;;5091902;28;20472;-71
2023/03/18 03:57:55;;;;;;;2.10;1.20;;;11.70;65.00;;;;;;5092171;28;20411;-71
2023/03/18 04:00:22;;;;;;;4.87;1.30;;;11.40;65.80;;;;;;5092058;28;20442;-71
2023/03/18 04:02:50;;;;;;;1.87;1.10;;;11.30;66.80;;;;;;5092064;28;20211;-71
2023/03/18 04:05:18;;;;;;;3.03;1.40;;;11.30;65.00;;;;;;5091015;28;20427;-71
2023/03/18 04:07:45;;;;;;;4.00;1.30;;;11.20;66.80;;;;;;5092500;28;20415;-71
2023/03/18 04:10:13;;;;;;;2.80;1.50;;;11.20;66.70;;;;;;5092297;28;20480;-71
2023/03/18 04:12:39;;;;;;;1.97;1.10;;;11.10;68.10;;;;;;5092597;28;20449;-71
2023/03/18 04:15:06;;;;;;;3.87;1.37;;;10.80;69.00;;;;;;5092388;28;20441;-72
2023/03/18 04:17:33;;;;;;;1.70;0.97;;;10.70;70.00;;;;;;5091226;28;20764;-72
2023/03/18 04:19:59;;;;;;;1.90;1.00;;;10.80;69.50;;;;;;5091220;28;20977;-72
2023/03/18 04:22:24;;;;;;;3.33;0.97;;;10.70;69.40;;;;;;5091883;28;20427;-71
2023/03/18 04:24:50;;;;;;;2.30;0.90;;;10.60;69.80;;;;;;5092165;28;20601;-71
2023/03/18 04:27:17;;;;;;;2.17;1.10;;;10.50;70.80;;;;;;5091559;28;20174;-72
2023/03/18 04:29:43;;;;;;;6.70;1.40;;;10.40;72.30;;;;;;5091086;28;20301;-71
2023/03/18 04:32:09;;;;;;;6.83;1.43;;;10.50;71.80;;;;;;5091125;28;20410;-71
2023/03/18 04:34:35;;;;;;;3.00;1.53;;;10.40;71.40;;;;;;5091254;28;20928;-70
2023/03/18 04:37:01;;;;;;;4.60;1.63;;;10.30;72.10;;;;;;5089879;28;20455;-71
2023/03/18 04:39:27;;;;;;;1.80;1.30;;;10.30;71.50;;;;;;5091047;28;20887;-72
2023/03/18 04:41:53;;;;;;;2.30;1.20;;;10.30;73.90;;;;;;5090942;28;20455;-72
2023/03/18 04:44:19;;;;;;;3.57;1.27;;;10.20;72.50;;;;;;5089404;28;20718;-72
2023/03/18 04:46:45;;;;;;;18.03;9.70;;;10.20;72.90;;;;;;5090938;28;20413;-72
2023/03/18 04:49:11;;;;;;;4.63;2.77;;;10.40;69.40;;;;;;5089355;28;20449;-72
2023/03/18 04:51:37;;;;;;;3.17;1.77;;;10.60;69.40;;;;;;5090768;28;20524;-71
2023/03/18 04:54:03;;;;;;;3.33;1.30;;;10.60;68.60;;;;;;5089243;28;20421;-71
2023/03/18 04:56:28;;;;;;;2.97;1.80;;;10.60;69.00;;;;;;5090497;28;20598;-72
2023/03/18 04:58:54;;;;;;;1.77;1.20;;;10.70;69.00;;;;;;5090526;28;20614;-71
2023/03/18 05:01:19;;;;;;;1.60;1.10;;;10.60;69.60;;;;;;5090284;28;20200;-71
2023/03/18 05:03:46;;;;;;;1.73;1.13;;;10.60;69.20;;;;;;5090329;28;20270;-73
2023/03/18 05:06:20;;;;;;;1.40;0.93;;;10.60;69.60;;;;;;5090290;28;20617;-72
2023/03/18 05:08:46;;;;;;;2.03;1.30;;;10.60;69.50;;;;;;5090252;28;20900;-72
2023/03/18 05:11:12;;;;;;;2.20;1.20;;;10.50;69.30;;;;;;5088725;28;20447;-72
2023/03/18 05:13:37;;;;;;;1.30;1.20;;;10.50;70.40;;;;;;5071893;28;20615;-72
2023/03/18 05:16:03;;;;;;;2.20;1.07;;;10.60;67.50;;;;;;5088742;28;20637;-72
2023/03/18 05:18:29;;;;;;;1.67;0.97;;;10.70;67.20;;;;;;5090132;28;20422;-72
2023/03/18 05:20:54;;;;;;;1.97;1.30;;;10.70;67.80;;;;;;5090121;28;20206;-72
2023/03/18 05:23:21;;;;;;;1.37;1.20;;;10.70;68.00;;;;;;5088235;28;20209;-71
2023/03/18 05:25:50;;;;;;;9.93;1.60;;;10.50;69.80;;;;;;5089994;28;20722;-72
2023/03/18 05:28:17;;;;;;;3.03;1.10;;;10.30;71.50;;;;;;5088445;28;20427;-71
2023/03/18 05:30:42;;;;;;;6.03;1.40;;;10.30;72.70;;;;;;5089847;28;20531;-71
2023/03/18 05:33:08;;;;;;;7.73;1.60;;;10.00;76.90;;;;;;5087927;28;20520;-72
2023/03/18 05:35:34;;;;;;;3.37;1.43;;;9.70;81.20;;;;;;5089441;28;20179;-72
2023/03/18 05:38:00;;;;;;;5.93;2.17;;;9.60;82.10;;;;;;5089371;28;20209;-71
2023/03/18 05:40:26;;;;;;;2.70;1.27;;;9.40;86.00;;;;;;5088730;28;20449;-71
2023/03/18 05:42:51;;;;;;;4.80;2.30;;;9.30;86.10;;;;;;5089591;28;20416;-71
2023/03/18 05:45:18;;;;;;;4.30;1.73;;;9.10;86.60;;;;;;5088216;28;20555;-71
2023/03/18 05:47:44;;;;;;;1.57;1.10;;;9.10;86.30;;;;;;5089733;28;20235;-71
2023/03/18 05:50:10;;;;;;;4.67;1.17;;;9.00;87.90;;;;;;5089513;28;20446;-70
2023/03/18 05:52:37;;;;;;;4.87;1.47;;;9.00;88.60;;;;;;5089890;28;20187;-71
2023/03/18 05:55:03;;;;;;;2.50;1.20;;;8.90;90.20;;;;;;5089896;28;20424;-71
2023/03/18 05:57:29;;;;;;;2.27;1.00;;;8.90;90.20;;;;;;5088532;28;20979;-71
2023/03/18 05:59:54;;;;;;;1.73;1.20;;;8.90;91.10;;;;;;5089843;28;20447;-71
2023/03/18 06:02:20;;;;;;;2.67;1.20;;;8.80;91.50;;;;;;5087757;28;20766;-71
2023/03/18 06:04:46;;;;;;;2.90;1.20;;;8.80;91.00;;;;;;5089121;28;20214;-71
2023/03/18 06:07:12;;;;;;;1.60;1.13;;;8.90;91.20;;;;;;5089251;28;20625;-71
2023/03/18 06:09:38;;;;;;;5.17;1.63;;;8.90;91.50;;;;;;5089539;28;20457;-71
2023/03/18 06:12:04;;;;;;;2.10;1.10;;;8.90;91.20;;;;;;5088175;28;20539;-71
2023/03/18 06:14:30;;;;;;;3.47;1.20;;;8.90;91.20;;;;;;5089590;28;20191;-71
2023/03/18 06:16:56;;;;;;;1.60;0.93;;;8.90;91.80;;;;;;5089581;28;20947;-71
2023/03/18 06:19:22;;;;;;;3.40;1.20;;;8.90;91.50;;;;;;5087918;28;20473;-71
2023/03/18 06:21:47;;;;;;;3.33;0.97;;;8.90;92.00;;;;;;5089325;28;20458;-71
2023/03/18 06:24:14;;;;;;;4.70;1.03;;;9.10;92.00;;;;;;5089381;28;20456;-71
2023/03/18 06:26:40;;;;;;;6.27;1.77;;;9.20;91.10;;;;;;5089225;28;20708;-71
2023/03/18 06:29:06;;;;;;;2.90;2.20;;;9.20;91.50;;;;;;5087591;28;20420;-71
2023/03/18 06:31:33;;;;;;;2.20;2.00;;;9.30;90.70;;;;;;5088591;28;20965;-71
2023/03/18 06:33:59;;;;;;;3.30;1.80;;;9.30;91.90;;;;;;5089300;28;20450;-71
2023/03/18 06:36:25;;;;;;;4.40;1.63;;;9.40;91.90;;;;;;5088050;28;20446;-71
2023/03/18 06:38:51;;;;;;;2.53;1.33;;;9.40;92.10;;;;;;5088531;28;20445;-70
2023/03/18 06:41:17;;;;;;;3.37;1.20;;;9.40;92.80;;;;;;5088536;28;20461;-71
2023/03/18 06:43:43;;;;;;;1.87;1.10;;;9.50;92.60;;;;;;5086981;28;20471;-72
2023/03/18 06:46:09;;;;;;;4.87;1.73;;;9.70;92.50;;;;;;5093232;28;20951;-71
2023/03/18 06:48:39;;;;;;;2.37;1.93;;;9.80;92.60;;;;;;5095443;28;20508;-71
2023/03/18 06:51:05;;;;;;;4.90;2.40;;;9.90;92.00;;;;;;5095073;28;20468;-73
2023/03/18 06:53:32;;;;;;;2.57;1.20;;;10.10;91.40;;;;;;5095502;28;20469;-72
2023/03/18 06:55:57;;;;;;;9.20;1.03;;;10.30;90.20;;;;;;5095655;28;20424;-71
2023/03/18 06:58:23;;;;;;;2.03;1.33;;;10.50;90.50;;;;;;5095118;28;20414;-72
2023/03/18 07:00:49;;;;;;;2.93;1.37;;;10.80;88.00;;;;;;5093792;28;20305;-71
2023/03/18 07:03:15;;;;;;;2.77;1.57;;;11.30;85.10;;;;;;5095171;28;20198;-71
2023/03/18 07:05:41;;;;;;;3.83;2.17;;;11.50;83.90;;;;;;5093802;28;20420;-71
2023/03/18 07:08:08;;;;;;;7.50;4.20;;;11.70;81.90;;;;;;5094961;28;20248;-72
2023/03/18 07:10:34;;;;;;;3.73;2.80;;;11.60;80.20;;;;;;5094877;28;20430;-71
2023/03/18 07:13:00;;;;;;;3.97;2.00;;;11.80;79.90;;;;;;5094977;28;20480;-72
2023/03/18 07:15:26;;;;;;;3.17;1.40;;;12.20;80.60;;;;;;5093447;28;20659;-72
2023/03/18 07:17:52;;;;;;;3.53;1.60;;;12.70;77.80;;;;;;5093647;28;20475;-72
2023/03/18 07:20:19;;;;;;;4.77;2.10;;;13.10;77.10;;;;;;5094759;28;20442;-72
2023/03/18 07:22:46;;;;;;;3.53;2.60;;;13.50;75.80;;;;;;5094846;28;20418;-72
2023/03/18 07:25:12;;;;;;;4.40;3.67;;;13.60;71.00;;;;;;5095007;28;20412;-71
2023/03/18 07:27:38;;;;;;;6.67;2.50;;;14.10;70.10;;;;;;5093915;28;20412;-71
2023/03/18 07:30:05;;;;;;;8.03;2.10;;;14.50;65.70;;;;;;5095114;28;20456;-71
2023/03/18 07:32:31;;;;;;;9.63;3.40;;;14.60;65.80;;;;;;5093910;28;20450;-71
2023/03/18 07:34:58;;;;;;;6.23;1.80;;;14.80;67.50;;;;;;5095326;28;20427;-71
2023/03/18 07:37:24;;;;;;;1.70;1.60;;;15.00;64.80;;;;;;5093518;28;20455;-72
2023/03/18 07:39:51;;;;;;;6.17;2.50;;;15.10;64.40;;;;;;5095567;28;20890;-72
2023/03/18 07:42:18;;;;;;;4.80;2.10;;;15.60;65.60;;;;;;5094898;28;20456;-72
2023/03/18 07:44:43;;;;;;;3.50;2.70;;;15.70;62.90;;;;;;5095026;28;20997;-72
2023/03/18 07:47:09;;;;;;;4.30;3.10;;;15.50;62.70;;;;;;5094969;28;20416;-72
2023/03/18 07:49:34;;;;;;;6.63;3.33;;;15.40;62.60;;;;;;5094839;28;20195;-71
2023/03/18 07:52:01;;;;;;;4.03;3.10;;;15.50;61.80;;;;;;5095134;28;20179;-71
2023/03/18 07:54:26;;;;;;;5.33;2.37;;;15.60;61.00;;;;;;5094885;28;20202;-71
2023/03/18 07:56:52;;;;;;;4.53;2.30;;;15.40;62.00;;;;;;5092730;28;20455;-72
2023/03/18 07:59:18;;;;;;;3.77;2.00;;;15.50;61.20;;;;;;5092021;28;20245;-72
2023/03/18 08:01:43;;;;;;;6.63;2.60;;;15.50;58.20;;;;;;5073363;28;20424;-71
2023/03/18 08:04:09;;;;;;;3.80;2.33;;;15.40;59.50;;;;;;5091651;28;20261;-72
2023/03/18 08:06:36;;;;;;;3.90;2.03;;;15.70;62.20;;;;;;5091884;28;20175;-72
2023/03/18 08:09:02;;;;;;;26.77;8.77;;;15.90;58.20;;;;;;5090272;28;20424;-72
2023/03/18 08:11:28;;;;;;;12.27;6.77;;;16.10;53.50;;;;;;5091549;28;20722;-72
2023/03/18 08:13:53;;;;;;;29.67;10.30;;;16.30;53.30;;;;;;5088590;28;20424;-72
2023/03/18 08:16:19;;;;;;;4.50;1.53;;;16.50;51.30;;;;;;5089924;28;20267;-71
2023/03/18 08:18:44;;;;;;;53.53;18.37;;;16.60;49.20;;;;;;5088452;28;20259;-71
2023/03/18 08:21:10;;;;;;;6.20;2.07;;;16.80;49.90;;;;;;5090497;28;20246;-71
2023/03/18 08:23:36;;;;;;;1.80;1.30;;;16.70;48.60;;;;;;5090152;28;20242;-72
2023/03/18 08:26:03;;;;;;;2.60;1.13;;;17.00;50.20;;;;;;5090110;28;20187;-71
2023/03/18 08:28:28;;;;;;;2.60;0.70;;;17.30;49.70;;;;;;5089501;28;20516;-72
2023/03/18 08:30:55;;;;;;;4.77;1.30;;;17.50;47.50;;;;;;5087876;28;20552;-71
2023/03/18 08:33:22;;;;;;;1.83;1.00;;;17.60;48.20;;;;;;5087896;28;20195;-71
2023/03/18 08:35:48;;;;;;;2.13;0.77;;;17.60;48.20;;;;;;5087849;28;20460;-71
2023/03/18 08:38:14;;;;;;;18.17;1.90;;;17.80;47.40;;;;;;5088966;28;20480;-71
2023/03/18 08:40:41;;;;;;;3.30;1.50;;;17.90;45.30;;;;;;5089261;28;20697;-72
2023/03/18 08:43:07;;;;;;;2.80;0.90;;;18.10;46.00;;;;;;5089159;28;20520;-72
2023/03/18 08:45:34;;;;;;;3.17;1.00;;;18.20;46.40;;;;;;5089093;28;20502;-72
2023/03/18 08:48:00;;;;;;;4.17;0.83;;;18.30;45.50;;;;;;5087510;28;20866;-72
2023/03/18 08:50:28;;;;;;;4.30;1.17;;;18.50;43.40;;;;;;5088988;28;20522;-72
2023/03/18 08:52:59;;;;;;;3.37;1.07;;;18.50;44.70;;;;;;5089457;28;20172;-72
2023/03/18 08:55:30;;;;;;;2.40;1.00;;;19.00;45.40;;;;;;5089249;28;20791;-72
2023/03/18 08:57:56;;;;;;;7.93;1.47;;;19.40;44.10;;;;;;5087874;28;20525;-72
2023/03/18 09:00:23;;;;;;;7.17;0.97;;;19.60;45.00;;;;;;5087197;28;20450;-71
2023/03/18 09:02:48;;;;;;;3.33;1.47;;;20.00;43.20;;;;;;5088893;28;20417;-72
2023/03/18 09:05:14;;;;;;;7.73;1.20;;;20.00;42.20;;;;;;5087373;28;20415;-72
2023/03/18 09:07:40;;;;;;;3.23;1.27;;;20.20;40.70;;;;;;5088387;28;20190;-72
2023/03/18 09:10:06;;;;;;;4.73;1.30;;;19.80;37.20;;;;;;5086329;28;20465;-71
2023/03/18 09:12:32;;;;;;;2.50;0.80;;;20.10;38.80;;;;;;5070154;28;20184;-71
2023/03/18 09:14:57;;;;;;;3.73;1.33;;;20.70;40.20;;;;;;5088720;28;20432;-72
2023/03/18 09:17:23;;;;;;;5.50;1.60;;;21.00;38.30;;;;;;5087684;28;20677;-71
2023/03/18 09:19:49;;;;;;;1.87;1.17;;;21.20;38.00;;;;;;5088909;28;20741;-71
2023/03/18 09:22:15;;;;;;;6.40;1.27;;;21.50;39.30;;;;;;5087653;28;20184;-72
2023/03/18 09:24:41;;;;;;;2.70;1.80;;;21.60;38.10;;;;;;5089098;28;20721;-72
2023/03/18 09:27:06;;;;;;;2.10;1.53;;;22.00;37.20;;;;;;5087810;28;20415;-72
2023/03/18 09:29:32;;;;;;;2.60;1.20;;;22.00;37.70;;;;;;5089606;28;20234;-70
2023/03/18 09:31:59;;;;;;;4.23;1.10;;;22.70;36.60;;;;;;5087708;28;20604;-72
2023/03/18 09:34:25;;;;;;;3.37;1.00;;;22.70;36.10;;;;;;5089318;28;20174;-72
2023/03/18 09:36:51;;;;;;;4.30;1.37;;;23.20;38.20;;;;;;5089186;28;20415;-72
2023/03/18 09:39:18;;;;;;;3.07;0.90;;;23.20;35.60;;;;;;5087620;28;20710;-72
2023/03/18 09:42:20;;;;;;;3.73;1.20;;;23.20;35.50;;;;;;5089156;28;20429;-72
2023/03/18 09:44:59;;;;;;;2.67;1.37;;;23.30;35.50;;;;;;5088759;28;20466;-72
2023/03/18 09:47:36;;;;;;;2.07;0.90;;;23.30;34.40;;;;;;5088664;28;20431;-71
2023/03/18 09:50:05;;;;;;;2.60;1.37;;;23.40;34.50;;;;;;5088047;28;20427;-72
2023/03/18 09:52:56;;;;;;;3.97;1.10;;;23.80;34.00;;;;;;5088246;28;20775;-73
2023/03/18 09:55:39;;;;;;;5.40;1.40;;;23.90;33.20;;;;;;5087104;28;20827;-73
2023/03/18 09:58:24;;;;;;;2.83;1.27;;;24.20;35.20;;;;;;5088085;28;20977;-72
2023/03/18 10:00:55;;;;;;;3.33;1.20;;;24.40;36.20;;;;;;5087893;28;20456;-73
2023/03/18 10:03:26;;;;;;;4.83;1.33;;;24.60;34.90;;;;;;5088217;28;20502;-73
2023/03/18 10:06:17;;;;;;;7.20;1.77;;;24.30;33.50;;;;;;5087662;28;20405;-74
2023/03/18 10:09:03;;;;;;;3.57;1.07;;;24.60;34.10;;;;;;5075878;28;20900;-74
2023/03/18 10:11:34;;;;;;;6.17;2.03;;;25.10;33.90;;;;;;5087519;28;20863;-73
2023/03/18 10:14:23;;;;;;;9.93;1.93;;;25.00;32.90;;;;;;5086621;28;20466;-73
2023/03/18 10:17:21;;;;;;;2.13;1.30;;;24.90;32.20;;;;;;5087915;28;20811;-73
2023/03/18 10:19:57;;;;;;;4.03;1.50;;;24.70;32.80;;;;;;5076800;28;20450;-74
2023/03/18 10:22:41;;;;;;;9.93;1.93;;;24.60;32.60;;;;;;5086326;28;20422;-73
2023/03/18 10:25:27;;;;;;;1.50;0.93;;;24.50;32.10;;;;;;5087639;28;20977;-72
2023/03/18 10:28:04;;;;;;;5.00;1.50;;;24.50;32.70;;;;;;5087738;28;20491;-74
2023/03/18 10:30:49;;;;;;;3.17;1.37;;;24.30;30.80;;;;;;5086300;28;20444;-73
2023/03/18 10:33:34;;;;;;;2.60;1.33;;;24.40;30.90;;;;;;5088256;28;20415;-74
2023/03/18 10:36:23;;;;;;;3.20;1.40;;;24.60;29.70;;;;;;5088613;28;20636;-72
2023/03/18 10:38:52;;;;;;;23.70;2.67;;;24.50;29.80;;;;;;5089138;28;20468;-74
2023/03/18 10:41:24;;;;;;;2.80;1.17;;;24.80;32.30;;;;;;5088347;28;20419;-74
2023/03/18 10:43:53;;;;;;;4.83;1.37;;;24.80;30.30;;;;;;5087094;28;20463;-73
2023/03/18 10:46:20;;;;;;;5.97;1.10;;;24.70;31.90;;;;;;5088327;28;20486;-73
2023/03/18 10:48:54;;;;;;;2.23;1.07;;;25.40;30.60;;;;;;5088444;28;20408;-73
2023/03/18 10:51:28;;;;;;;5.63;1.47;;;25.40;30.00;;;;;;5088312;28;20443;-74
2023/03/18 10:54:26;;;;;;;4.30;1.23;;;25.90;30.50;;;;;;5086278;28;20468;-74
2023/03/18 10:56:52;;;;;;;8.73;1.33;;;25.50;28.80;;;;;;5086261;28;20848;-74
2023/03/18 10:59:21;;;;;;;4.30;1.80;;;25.10;29.00;;;;;;5087395;28;20442;-74
2023/03/18 11:01:52;;;;;;;7.60;1.53;;;25.20;30.50;;;;;;5086248;28;20472;-74
2023/03/18 11:04:20;;;;;;;6.30;1.70;;;25.10;31.10;;;;;;5086096;28;20556;-74
2023/03/18 11:06:57;;;;;;;2.37;1.10;;;25.00;30.00;;;;;;5087266;28;20482;-72
2023/03/18 11:09:35;;;;;;;4.10;1.23;;;24.80;31.10;;;;;;5085711;28;20446;-73
2023/03/18 11:12:27;;;;;;;1.33;1.20;;;24.70;30.00;;;;;;5087522;28;20436;-73
2023/03/18 11:14:55;;;;;;;9.63;1.50;;;24.50;30.00;;;;;;5083795;28;20818;-72
2023/03/18 11:17:35;;;;;;;2.40;1.17;;;24.40;30.80;;;;;;5085683;28;20430;-73
2023/03/18 11:20:06;;;;;;;2.60;1.50;;;24.70;32.20;;;;;;5087073;28;20465;-72
2023/03/18 11:22:33;;;;;;;6.60;1.33;;;25.20;31.00;;;;;;5069123;28;20430;-72
2023/03/18 11:25:16;;;;;;;3.43;1.07;;;25.40;32.00;;;;;;5087102;28;20467;-72
2023/03/18 11:27:44;;;;;;;1.57;1.27;;;25.20;31.40;;;;;;5087440;28;20528;-73
2023/03/18 11:30:23;;;;;;;5.23;1.53;;;25.00;31.40;;;;;;5087206;28;20449;-73
2023/03/18 11:33:01;;;;;;;2.80;1.40;;;24.80;30.50;;;;;;5087875;28;20425;-73
2023/03/18 11:35:39;;;;;;;6.60;1.50;;;24.80;30.90;;;;;;5090668;28;20449;-73
2023/03/18 11:38:12;;;;;;;1.90;1.20;;;24.70;31.60;;;;;;5090537;28;20998;-73
2023/03/18 11:40:39;;;;;;;3.63;1.53;;;24.90;30.20;;;;;;5089179;28;20447;-73
2023/03/18 11:43:18;;;;;;;1.70;1.00;;;25.40;30.70;;;;;;5090922;28;20453;-71
2023/03/18 11:45:57;;;;;;;3.40;1.27;;;25.50;29.80;;;;;;5090692;28;20758;-72
2023/03/18 11:48:41;;;;;;;2.40;1.20;;;25.50;30.20;;;;;;5090564;28;20870;-72
2023/03/18 11:51:10;;;;;;;2.87;1.33;;;25.50;30.10;;;;;;5088931;28;20537;-73
2023/03/18 11:54:23;;;;;;;2.50;1.23;;;25.80;30.60;;;;;;5088897;28;20480;-72
2023/03/18 11:56:54;;;;;;;2.70;1.20;;;25.60;28.70;;;;;;5068868;28;20446;-73
2023/03/18 11:59:26;;;;;;;3.97;1.20;;;25.50;29.30;;;;;;5088238;28;20450;-73
2023/03/18 12:01:58;;;;;;;3.27;1.43;;;25.60;30.10;;;;;;5088259;28;20426;-73
2023/03/18 12:04:51;;;;;;;3.10;1.53;;;25.70;30.60;;;;;;5089608;28;20974;-72
2023/03/18 12:07:16;;;;;;;2.17;1.50;;;25.50;30.20;;;;;;5089621;28;20855;-73
2023/03/18 12:10:13;;;;;;;1.70;1.50;;;25.70;30.80;;;;;;5089636;28;20484;-73
2023/03/18 12:13:10;;;;;;;3.73;1.63;;;25.80;29.50;;;;;;5089581;28;20177;-73
2023/03/18 12:16:03;;;;;;;5.03;1.37;;;26.10;28.60;;;;;;5089491;28;20498;-74
2023/03/18 12:18:55;;;;;;;3.83;1.30;;;25.70;27.20;;;;;;5091715;28;20430;-73
2023/03/18 12:21:29;;;;;;;3.10;1.50;;;26.10;29.00;;;;;;5091056;28;20429;-73
2023/03/18 12:23:55;;;;;;;1.73;1.30;;;26.10;28.90;;;;;;5090154;28;20469;-74
2023/03/18 12:26:46;;;;;;;6.30;1.37;;;25.90;29.40;;;;;;5089046;28;20428;-73
2023/03/18 12:29:51;;;;;;;3.90;1.47;;;25.70;28.60;;;;;;5090144;28;20654;-73
2023/03/18 12:32:32;;;;;;;3.53;1.53;;;25.70;28.40;;;;;;5087468;28;20458;-73
2023/03/18 12:35:27;;;;;;;2.90;1.50;;;25.60;29.10;;;;;;5090139;28;20411;-73
2023/03/18 12:38:26;;;;;;;2.40;1.43;;;25.80;28.80;;;;;;5089742;28;20439;-73
2023/03/18 12:40:55;;;;;;;3.73;1.73;;;25.90;28.90;;;;;;5089699;28;20426;-74
2023/03/18 12:43:50;;;;;;;2.40;1.27;;;26.20;29.90;;;;;;5087501;28;20994;-73
2023/03/18 12:46:24;;;;;;;1.93;1.30;;;25.90;28.50;;;;;;5089937;28;20441;-73
2023/03/18 12:48:59;;;;;;;2.03;1.00;;;25.70;28.70;;;;;;5089637;28;20771;-74
2023/03/18 12:51:30;;;;;;;2.33;1.50;;;25.70;29.20;;;;;;5089014;28;20613;-73
2023/03/18 12:54:12;;;;;;;3.53;1.30;;;25.70;28.60;;;;;;5087336;28;20428;-73
2023/03/18 12:56:44;;;;;;;2.90;1.70;;;25.50;29.50;;;;;;5089171;28;20454;-75
2023/03/18 12:59:31;;;;;;;1.87;1.40;;;25.30;28.10;;;;;;5088774;28;20468;-73
2023/03/18 13:02:36;;;;;;;4.50;1.37;;;25.30;28.70;;;;;;5089297;28;20711;-74